sensor_id;sensor_type;location;lat;lon;timestamp;P1;durP1;ratioP1;P2;durP2;ratioP2
21297;SDS011;10808;48.010;11.326;2022-09-12T00:01:22;5.57;;;4.22;;
21297;SDS011;10808;48.010;11.326;2022-09-12T00:03:51;6.20;;;3.60;;
21297;SDS011;10808;48.010;11.326;2022-09-12T00:06:21;4.35;;;3.80;;
21297;SDS011;10808;48.010;11.326;2022-09-12T00:08:49;4.55;;;3.70;;
21297;SDS011;10808;48.010;11.326;2022-09-12T00:11:16;4.28;;;3.80;;
21297;SDS011;10808;48.010;11.326;2022-09-12T00:13:42;5.22;;;3.63;;
21297;SDS011;10808;48.010;11.326;2022-09-12T00:16:15;5.28;;;3.60;;
21297;SDS011;10808;48.010;11.326;2022-09-12T00:18:44;4.35;;;3.45;;
21297;SDS011;10808;48.010;11.326;2022-09-12T00:21:11;3.78;;;3.25;;
21297;SDS011;10808;48.010;11.326;2022-09-12T00:23:38;6.90;;;3.50;;
21297;SDS011;10808;48.010;11.326;2022-09-12T00:26:05;4.60;;;3.15;;
21297;SDS011;10808;48.010;11.326;2022-09-12T00:28:33;3.67;;;3.33;;
21297;SDS011;10808;48.010;11.326;2022-09-12T00:31:02;4.68;;;3.35;;
21297;SDS011;10808;48.010;11.326;2022-09-12T00:33:33;5.30;;;3.22;;
21297;SDS011;10808;48.010;11.326;2022-09-12T00:36:02;3.87;;;3.10;;
21297;SDS011;10808;48.010;11.326;2022-09-12T00:38:34;4.10;;;3.30;;
21297;SDS011;10808;48.010;11.326;2022-09-12T00:41:04;5.33;;;3.10;;
21297;SDS011;10808;48.010;11.326;2022-09-12T00:43:40;3.77;;;3.37;;
21297;SDS011;10808;48.010;11.326;2022-09-12T00:49:03;3.53;;;3.22;;
21297;SDS011;10808;48.010;11.326;2022-09-12T00:51:36;5.47;;;3.33;;
21297;SDS011;10808;48.010;11.326;2022-09-12T00:54:05;4.18;;;3.35;;
21297;SDS011;10808;48.010;11.326;2022-09-12T00:56:36;3.33;;;3.00;;
21297;SDS011;10808;48.010;11.326;2022-09-12T00:59:09;4.18;;;3.10;;
21297;SDS011;10808;48.010;11.326;2022-09-12T01:01:39;3.45;;;2.90;;
21297;SDS011;10808;48.010;11.326;2022-09-12T01:04:08;3.70;;;2.80;;
21297;SDS011;10808;48.010;11.326;2022-09-12T01:06:36;3.97;;;2.67;;
21297;SDS011;10808;48.010;11.326;2022-09-12T01:09:05;3.70;;;2.83;;
21297;SDS011;10808;48.010;11.326;2022-09-12T01:11:33;4.35;;;3.15;;
21297;SDS011;10808;48.010;11.326;2022-09-12T01:14:01;3.75;;;2.47;;
21297;SDS011;10808;48.010;11.326;2022-09-12T01:16:27;3.10;;;2.80;;
21297;SDS011;10808;48.010;11.326;2022-09-12T01:18:57;3.35;;;2.78;;
21297;SDS011;10808;48.010;11.326;2022-09-12T01:35:22;4.60;;;2.72;;
21297;SDS011;10808;48.010;11.326;2022-09-12T01:38:17;3.00;;;2.67;;
21297;SDS011;10808;48.010;11.326;2022-09-12T01:43:34;4.20;;;2.50;;
21297;SDS011;10808;48.010;11.326;2022-09-12T01:46:23;2.60;;;2.40;;
21297;SDS011;10808;48.010;11.326;2022-09-12T01:49:01;3.58;;;2.47;;
21297;SDS011;10808;48.010;11.326;2022-09-12T01:57:17;3.83;;;2.20;;
21297;SDS011;10808;48.010;11.326;2022-09-12T02:00:03;2.70;;;2.30;;
21297;SDS011;10808;48.010;11.326;2022-09-12T02:02:53;3.40;;;2.35;;
21297;SDS011;10808;48.010;11.326;2022-09-12T02:05:36;3.70;;;2.40;;
21297;SDS011;10808;48.010;11.326;2022-09-12T02:08:08;4.95;;;2.38;;
21297;SDS011;10808;48.010;11.326;2022-09-12T02:10:51;3.05;;;2.50;;
21297;SDS011;10808;48.010;11.326;2022-09-12T02:13:21;3.63;;;2.50;;
21297;SDS011;10808;48.010;11.326;2022-09-12T02:15:57;4.80;;;2.40;;
21297;SDS011;10808;48.010;11.326;2022-09-12T02:18:38;2.53;;;2.30;;
21297;SDS011;10808;48.010;11.326;2022-09-12T02:21:08;2.70;;;2.50;;
21297;SDS011;10808;48.010;11.326;2022-09-12T02:23:36;3.13;;;2.37;;
21297;SDS011;10808;48.010;11.326;2022-09-12T02:26:07;2.60;;;2.13;;
21297;SDS011;10808;48.010;11.326;2022-09-12T02:28:45;2.90;;;2.20;;
21297;SDS011;10808;48.010;11.326;2022-09-12T02:39:01;2.75;;;1.90;;
21297;SDS011;10808;48.010;11.326;2022-09-12T02:41:28;3.33;;;2.13;;
21297;SDS011;10808;48.010;11.326;2022-09-12T02:43:54;2.00;;;1.90;;
21297;SDS011;10808;48.010;11.326;2022-09-12T02:46:21;2.80;;;2.00;;
21297;SDS011;10808;48.010;11.326;2022-09-12T02:48:52;4.90;;;2.40;;
21297;SDS011;10808;48.010;11.326;2022-09-12T02:51:20;3.45;;;2.08;;
21297;SDS011;10808;48.010;11.326;2022-09-12T02:53:46;2.30;;;2.10;;
21297;SDS011;10808;48.010;11.326;2022-09-12T02:56:17;2.17;;;1.90;;
21297;SDS011;10808;48.010;11.326;2022-09-12T02:58:58;3.40;;;1.95;;
21297;SDS011;10808;48.010;11.326;2022-09-12T03:01:35;3.70;;;1.93;;
21297;SDS011;10808;48.010;11.326;2022-09-12T03:04:21;5.10;;;1.88;;
21297;SDS011;10808;48.010;11.326;2022-09-12T03:14:58;2.40;;;2.20;;
21297;SDS011;10808;48.010;11.326;2022-09-12T03:20:07;3.00;;;2.33;;
21297;SDS011;10808;48.010;11.326;2022-09-12T03:22:59;2.30;;;2.10;;
21297;SDS011;10808;48.010;11.326;2022-09-12T03:25:40;3.10;;;2.27;;
21297;SDS011;10808;48.010;11.326;2022-09-12T03:28:15;2.88;;;2.20;;
21297;SDS011;10808;48.010;11.326;2022-09-12T03:30:46;2.17;;;1.98;;
21297;SDS011;10808;48.010;11.326;2022-09-12T03:33:18;2.50;;;2.30;;
21297;SDS011;10808;48.010;11.326;2022-09-12T03:35:47;5.00;;;2.70;;
21297;SDS011;10808;48.010;11.326;2022-09-12T03:38:14;3.80;;;2.90;;
21297;SDS011;10808;48.010;11.326;2022-09-12T03:40:41;5.00;;;2.90;;
21297;SDS011;10808;48.010;11.326;2022-09-12T03:43:07;3.70;;;3.15;;
21297;SDS011;10808;48.010;11.326;2022-09-12T03:45:34;5.07;;;2.90;;
21297;SDS011;10808;48.010;11.326;2022-09-12T03:48:02;6.30;;;3.33;;
21297;SDS011;10808;48.010;11.326;2022-09-12T03:50:28;6.00;;;3.30;;
21297;SDS011;10808;48.010;11.326;2022-09-12T03:52:55;4.72;;;2.95;;
21297;SDS011;10808;48.010;11.326;2022-09-12T03:55:24;4.97;;;3.50;;
21297;SDS011;10808;48.010;11.326;2022-09-12T03:57:51;4.65;;;3.28;;
21297;SDS011;10808;48.010;11.326;2022-09-12T04:00:20;3.75;;;2.92;;
21297;SDS011;10808;48.010;11.326;2022-09-12T04:02:47;3.15;;;2.83;;
21297;SDS011;10808;48.010;11.326;2022-09-12T04:05:13;5.13;;;2.95;;
21297;SDS011;10808;48.010;11.326;2022-09-12T04:07:39;4.15;;;3.08;;
21297;SDS011;10808;48.010;11.326;2022-09-12T04:10:05;3.63;;;3.03;;
21297;SDS011;10808;48.010;11.326;2022-09-12T04:12:31;3.80;;;3.17;;
21297;SDS011;10808;48.010;11.326;2022-09-12T04:14:57;5.57;;;3.30;;
21297;SDS011;10808;48.010;11.326;2022-09-12T04:17:23;3.60;;;3.10;;
21297;SDS011;10808;48.010;11.326;2022-09-12T04:19:49;4.60;;;3.00;;
21297;SDS011;10808;48.010;11.326;2022-09-12T04:22:15;4.80;;;3.25;;
21297;SDS011;10808;48.010;11.326;2022-09-12T04:24:42;5.40;;;3.47;;
21297;SDS011;10808;48.010;11.326;2022-09-12T04:27:08;4.07;;;3.40;;
21297;SDS011;10808;48.010;11.326;2022-09-12T04:29:34;4.53;;;3.25;;
21297;SDS011;10808;48.010;11.326;2022-09-12T04:32:00;6.13;;;3.53;;
21297;SDS011;10808;48.010;11.326;2022-09-12T04:34:29;4.77;;;3.43;;
21297;SDS011;10808;48.010;11.326;2022-09-12T04:36:56;4.65;;;3.65;;
21297;SDS011;10808;48.010;11.326;2022-09-12T04:39:22;4.22;;;3.28;;
21297;SDS011;10808;48.010;11.326;2022-09-12T04:41:48;5.22;;;3.50;;
21297;SDS011;10808;48.010;11.326;2022-09-12T04:44:14;5.22;;;3.30;;
21297;SDS011;10808;48.010;11.326;2022-09-12T04:46:42;4.70;;;3.30;;
21297;SDS011;10808;48.010;11.326;2022-09-12T04:49:09;5.22;;;3.45;;
21297;SDS011;10808;48.010;11.326;2022-09-12T04:51:37;6.18;;;3.88;;
21297;SDS011;10808;48.010;11.326;2022-09-12T04:54:05;4.50;;;3.77;;
21297;SDS011;10808;48.010;11.326;2022-09-12T04:56:37;8.50;;;3.70;;
21297;SDS011;10808;48.010;11.326;2022-09-12T04:59:05;5.30;;;3.22;;
21297;SDS011;10808;48.010;11.326;2022-09-12T05:01:33;4.20;;;3.03;;
21297;SDS011;10808;48.010;11.326;2022-09-12T05:04:01;3.50;;;2.83;;
21297;SDS011;10808;48.010;11.326;2022-09-12T05:06:29;3.70;;;2.92;;
21297;SDS011;10808;48.010;11.326;2022-09-12T05:08:57;4.55;;;2.85;;
21297;SDS011;10808;48.010;11.326;2022-09-12T05:11:25;2.80;;;2.60;;
21297;SDS011;10808;48.010;11.326;2022-09-12T05:13:56;3.60;;;2.80;;
21297;SDS011;10808;48.010;11.326;2022-09-12T05:16:23;4.13;;;3.15;;
21297;SDS011;10808;48.010;11.326;2022-09-12T05:18:50;2.63;;;2.42;;
21297;SDS011;10808;48.010;11.326;2022-09-12T05:21:18;5.05;;;2.30;;
21297;SDS011;10808;48.010;11.326;2022-09-12T05:23:46;3.42;;;2.42;;
21297;SDS011;10808;48.010;11.326;2022-09-12T05:26:15;3.40;;;2.60;;
21297;SDS011;10808;48.010;11.326;2022-09-12T05:28:42;3.55;;;2.20;;
21297;SDS011;10808;48.010;11.326;2022-09-12T05:33:38;4.70;;;2.50;;
21297;SDS011;10808;48.010;11.326;2022-09-12T05:36:06;4.80;;;2.40;;
21297;SDS011;10808;48.010;11.326;2022-09-12T05:38:35;5.18;;;2.70;;
21297;SDS011;10808;48.010;11.326;2022-09-12T05:41:04;3.45;;;2.42;;
21297;SDS011;10808;48.010;11.326;2022-09-12T05:43:36;8.85;;;2.55;;
21297;SDS011;10808;48.010;11.326;2022-09-12T05:46:04;4.25;;;2.47;;
21297;SDS011;10808;48.010;11.326;2022-09-12T05:48:36;5.00;;;2.05;;
21297;SDS011;10808;48.010;11.326;2022-09-12T05:51:04;5.15;;;2.40;;
21297;SDS011;10808;48.010;11.326;2022-09-12T05:53:36;3.75;;;2.05;;
21297;SDS011;10808;48.010;11.326;2022-09-12T05:56:11;4.25;;;2.15;;
21297;SDS011;10808;48.010;11.326;2022-09-12T05:58:39;6.18;;;2.15;;
21297;SDS011;10808;48.010;11.326;2022-09-12T06:01:08;6.03;;;2.47;;
21297;SDS011;10808;48.010;11.326;2022-09-12T06:03:38;7.53;;;2.53;;
21297;SDS011;10808;48.010;11.326;2022-09-12T06:06:10;4.70;;;2.05;;
21297;SDS011;10808;48.010;11.326;2022-09-12T06:08:39;4.70;;;2.40;;
21297;SDS011;10808;48.010;11.326;2022-09-12T06:11:06;2.50;;;2.30;;
21297;SDS011;10808;48.010;11.326;2022-09-12T06:13:34;3.78;;;2.60;;
21297;SDS011;10808;48.010;11.326;2022-09-12T06:16:02;9.18;;;2.70;;
21297;SDS011;10808;48.010;11.326;2022-09-12T06:18:30;3.08;;;2.30;;
21297;SDS011;10808;48.010;11.326;2022-09-12T06:20:57;3.00;;;2.70;;
21297;SDS011;10808;48.010;11.326;2022-09-12T06:23:26;6.32;;;2.60;;
21297;SDS011;10808;48.010;11.326;2022-09-12T06:25:52;3.57;;;3.10;;
21297;SDS011;10808;48.010;11.326;2022-09-12T06:28:19;6.23;;;3.20;;
21297;SDS011;10808;48.010;11.326;2022-09-12T06:30:45;3.58;;;2.58;;
21297;SDS011;10808;48.010;11.326;2022-09-12T06:33:11;2.90;;;2.60;;
21297;SDS011;10808;48.010;11.326;2022-09-12T06:35:45;2.80;;;2.47;;
21297;SDS011;10808;48.010;11.326;2022-09-12T06:38:11;3.67;;;2.93;;
21297;SDS011;10808;48.010;11.326;2022-09-12T06:40:40;3.30;;;2.67;;
21297;SDS011;10808;48.010;11.326;2022-09-12T06:43:11;2.57;;;2.37;;
21297;SDS011;10808;48.010;11.326;2022-09-12T06:45:47;2.97;;;2.45;;
21297;SDS011;10808;48.010;11.326;2022-09-12T06:48:14;3.50;;;2.40;;
21297;SDS011;10808;48.010;11.326;2022-09-12T06:50:40;2.88;;;2.58;;
21297;SDS011;10808;48.010;11.326;2022-09-12T06:53:06;2.50;;;2.30;;
21297;SDS011;10808;48.010;11.326;2022-09-12T06:55:32;7.05;;;2.85;;
21297;SDS011;10808;48.010;11.326;2022-09-12T06:57:59;2.23;;;2.03;;
21297;SDS011;10808;48.010;11.326;2022-09-12T07:00:25;2.60;;;2.10;;
21297;SDS011;10808;48.010;11.326;2022-09-12T07:02:54;2.33;;;2.00;;
21297;SDS011;10808;48.010;11.326;2022-09-12T07:05:23;2.30;;;1.77;;
21297;SDS011;10808;48.010;11.326;2022-09-12T07:07:49;2.28;;;2.05;;
21297;SDS011;10808;48.010;11.326;2022-09-12T07:10:15;2.20;;;2.00;;
21297;SDS011;10808;48.010;11.326;2022-09-12T07:12:41;1.92;;;1.77;;
21297;SDS011;10808;48.010;11.326;2022-09-12T07:15:07;2.28;;;1.90;;
21297;SDS011;10808;48.010;11.326;2022-09-12T07:17:34;3.53;;;1.83;;
21297;SDS011;10808;48.010;11.326;2022-09-12T07:20:01;2.67;;;1.77;;
21297;SDS011;10808;48.010;11.326;2022-09-12T07:22:27;2.33;;;1.88;;
21297;SDS011;10808;48.010;11.326;2022-09-12T07:24:53;2.20;;;1.80;;
21297;SDS011;10808;48.010;11.326;2022-09-12T07:27:20;1.97;;;1.70;;
21297;SDS011;10808;48.010;11.326;2022-09-12T07:29:46;2.10;;;1.90;;
21297;SDS011;10808;48.010;11.326;2022-09-12T07:32:12;1.60;;;1.50;;
21297;SDS011;10808;48.010;11.326;2022-09-12T07:34:39;1.80;;;1.70;;
21297;SDS011;10808;48.010;11.326;2022-09-12T07:37:05;2.00;;;1.50;;
21297;SDS011;10808;48.010;11.326;2022-09-12T07:39:31;3.15;;;1.50;;
21297;SDS011;10808;48.010;11.326;2022-09-12T07:41:57;1.40;;;1.30;;
21297;SDS011;10808;48.010;11.326;2022-09-12T07:44:24;1.90;;;1.50;;
21297;SDS011;10808;48.010;11.326;2022-09-12T07:46:51;1.73;;;1.35;;
21297;SDS011;10808;48.010;11.326;2022-09-12T07:49:17;1.75;;;1.48;;
21297;SDS011;10808;48.010;11.326;2022-09-12T07:51:43;1.50;;;1.23;;
21297;SDS011;10808;48.010;11.326;2022-09-12T07:54:10;2.38;;;1.30;;
21297;SDS011;10808;48.010;11.326;2022-09-12T07:56:36;1.70;;;1.40;;
21297;SDS011;10808;48.010;11.326;2022-09-12T07:59:03;1.75;;;1.20;;
21297;SDS011;10808;48.010;11.326;2022-09-12T08:01:29;5.18;;;1.60;;
21297;SDS011;10808;48.010;11.326;2022-09-12T08:03:56;1.60;;;1.50;;
21297;SDS011;10808;48.010;11.326;2022-09-12T08:06:24;1.80;;;1.30;;
21297;SDS011;10808;48.010;11.326;2022-09-12T08:08:53;1.80;;;1.40;;
21297;SDS011;10808;48.010;11.326;2022-09-12T08:11:20;2.20;;;1.52;;
21297;SDS011;10808;48.010;11.326;2022-09-12T08:13:47;1.85;;;1.67;;
21297;SDS011;10808;48.010;11.326;2022-09-12T08:16:17;4.10;;;1.90;;
21297;SDS011;10808;48.010;11.326;2022-09-12T08:18:46;2.00;;;1.80;;
21297;SDS011;10808;48.010;11.326;2022-09-12T08:21:13;2.90;;;1.77;;
21297;SDS011;10808;48.010;11.326;2022-09-12T08:24:14;1.83;;;1.70;;
21297;SDS011;10808;48.010;11.326;2022-09-12T08:26:40;2.10;;;1.90;;
21297;SDS011;10808;48.010;11.326;2022-09-12T08:29:07;1.67;;;1.58;;
21297;SDS011;10808;48.010;11.326;2022-09-12T08:31:33;2.03;;;1.75;;
21297;SDS011;10808;48.010;11.326;2022-09-12T08:34:01;3.33;;;1.77;;
21297;SDS011;10808;48.010;11.326;2022-09-12T08:36:29;2.03;;;1.63;;
21297;SDS011;10808;48.010;11.326;2022-09-12T08:38:59;2.17;;;1.77;;
21297;SDS011;10808;48.010;11.326;2022-09-12T08:41:38;1.90;;;1.70;;
21297;SDS011;10808;48.010;11.326;2022-09-12T08:44:30;2.20;;;1.80;;
21297;SDS011;10808;48.010;11.326;2022-09-12T08:55:15;2.03;;;1.92;;
21297;SDS011;10808;48.010;11.326;2022-09-12T08:57:49;2.00;;;1.90;;
21297;SDS011;10808;48.010;11.326;2022-09-12T09:00:16;2.22;;;1.80;;
21297;SDS011;10808;48.010;11.326;2022-09-12T09:08:07;3.15;;;1.70;;
21297;SDS011;10808;48.010;11.326;2022-09-12T09:11:41;2.03;;;1.83;;
21297;SDS011;10808;48.010;11.326;2022-09-12T09:14:38;2.30;;;2.00;;
21297;SDS011;10808;48.010;11.326;2022-09-12T09:17:20;2.00;;;1.90;;
21297;SDS011;10808;48.010;11.326;2022-09-12T09:20:21;2.30;;;1.70;;
21297;SDS011;10808;48.010;11.326;2022-09-12T09:25:58;2.60;;;1.60;;
21297;SDS011;10808;48.010;11.326;2022-09-12T09:28:35;1.85;;;1.60;;
21297;SDS011;10808;48.010;11.326;2022-09-12T09:31:17;1.70;;;1.60;;
21297;SDS011;10808;48.010;11.326;2022-09-12T09:33:46;1.75;;;1.60;;
21297;SDS011;10808;48.010;11.326;2022-09-12T09:36:36;1.60;;;1.50;;
21297;SDS011;10808;48.010;11.326;2022-09-12T09:42:10;1.60;;;1.50;;
21297;SDS011;10808;48.010;11.326;2022-09-12T09:44:45;2.63;;;1.50;;
21297;SDS011;10808;48.010;11.326;2022-09-12T09:47:13;1.50;;;1.40;;
21297;SDS011;10808;48.010;11.326;2022-09-12T09:49:42;1.67;;;1.58;;
21297;SDS011;10808;48.010;11.326;2022-09-12T09:52:09;1.90;;;1.48;;
21297;SDS011;10808;48.010;11.326;2022-09-12T09:54:43;1.50;;;1.40;;
21297;SDS011;10808;48.010;11.326;2022-09-12T10:02:59;1.30;;;1.20;;
21297;SDS011;10808;48.010;11.326;2022-09-12T10:05:31;1.75;;;1.38;;
21297;SDS011;10808;48.010;11.326;2022-09-12T10:08:00;1.60;;;1.33;;
21297;SDS011;10808;48.010;11.326;2022-09-12T10:10:28;1.50;;;1.40;;
21297;SDS011;10808;48.010;11.326;2022-09-12T10:13:07;1.50;;;1.40;;
21297;SDS011;10808;48.010;11.326;2022-09-12T10:16:00;1.93;;;1.37;;
21297;SDS011;10808;48.010;11.326;2022-09-12T10:18:36;1.40;;;1.30;;
21297;SDS011;10808;48.010;11.326;2022-09-12T10:21:19;2.00;;;1.40;;
21297;SDS011;10808;48.010;11.326;2022-09-12T10:23:59;2.65;;;1.50;;
21297;SDS011;10808;48.010;11.326;2022-09-12T10:26:36;3.03;;;1.42;;
21297;SDS011;10808;48.010;11.326;2022-09-12T10:29:14;1.40;;;1.30;;
21297;SDS011;10808;48.010;11.326;2022-09-12T10:31:48;1.57;;;1.47;;
21297;SDS011;10808;48.010;11.326;2022-09-12T10:34:29;1.70;;;1.60;;
21297;SDS011;10808;48.010;11.326;2022-09-12T10:37:07;1.52;;;1.33;;
21297;SDS011;10808;48.010;11.326;2022-09-12T10:39:40;1.33;;;1.23;;
21297;SDS011;10808;48.010;11.326;2022-09-12T10:42:13;1.35;;;1.20;;
21297;SDS011;10808;48.010;11.326;2022-09-12T10:44:40;1.23;;;1.10;;
21297;SDS011;10808;48.010;11.326;2022-09-12T10:47:22;2.50;;;1.17;;
21297;SDS011;10808;48.010;11.326;2022-09-12T10:49:49;1.65;;;1.40;;
21297;SDS011;10808;48.010;11.326;2022-09-12T10:52:22;2.10;;;1.30;;
21297;SDS011;10808;48.010;11.326;2022-09-12T10:54:50;1.48;;;1.38;;
21297;SDS011;10808;48.010;11.326;2022-09-12T10:57:30;1.67;;;1.20;;
21297;SDS011;10808;48.010;11.326;2022-09-12T11:16:48;1.30;;;1.20;;
21297;SDS011;10808;48.010;11.326;2022-09-12T11:24:51;2.20;;;1.20;;
21297;SDS011;10808;48.010;11.326;2022-09-12T11:30:17;1.38;;;1.27;;
21297;SDS011;10808;48.010;11.326;2022-09-12T11:32:50;1.90;;;1.20;;
21297;SDS011;10808;48.010;11.326;2022-09-12T11:35:40;2.15;;;1.25;;
21297;SDS011;10808;48.010;11.326;2022-09-12T11:41:06;1.20;;;1.10;;
21297;SDS011;10808;48.010;11.326;2022-09-12T11:46:36;1.38;;;1.27;;
21297;SDS011;10808;48.010;11.326;2022-09-12T11:51:41;1.35;;;1.25;;
21297;SDS011;10808;48.010;11.326;2022-09-12T11:54:17;1.45;;;1.35;;
21297;SDS011;10808;48.010;11.326;2022-09-12T11:56:49;1.40;;;1.10;;
21297;SDS011;10808;48.010;11.326;2022-09-12T12:01:55;1.17;;;1.10;;
21297;SDS011;10808;48.010;11.326;2022-09-12T12:04:26;1.38;;;1.20;;
21297;SDS011;10808;48.010;11.326;2022-09-12T12:07:02;1.35;;;1.20;;
21297;SDS011;10808;48.010;11.326;2022-09-12T12:09:32;1.10;;;1.00;;
21297;SDS011;10808;48.010;11.326;2022-09-12T12:12:00;2.22;;;1.00;;
21297;SDS011;10808;48.010;11.326;2022-09-12T12:14:36;1.30;;;1.20;;
21297;SDS011;10808;48.010;11.326;2022-09-12T12:17:20;1.30;;;1.20;;
21297;SDS011;10808;48.010;11.326;2022-09-12T12:19:55;1.40;;;1.30;;
21297;SDS011;10808;48.010;11.326;2022-09-12T12:22:23;1.45;;;1.35;;
21297;SDS011;10808;48.010;11.326;2022-09-12T12:30:57;1.47;;;1.20;;
21297;SDS011;10808;48.010;11.326;2022-09-12T12:38:32;1.20;;;1.10;;
21297;SDS011;10808;48.010;11.326;2022-09-12T12:43:43;1.30;;;1.10;;
21297;SDS011;10808;48.010;11.326;2022-09-12T12:46:21;2.05;;;1.17;;
21297;SDS011;10808;48.010;11.326;2022-09-12T12:49:06;1.37;;;1.27;;
21297;SDS011;10808;48.010;11.326;2022-09-12T12:54:29;1.40;;;1.30;;
21297;SDS011;10808;48.010;11.326;2022-09-12T13:00:02;1.30;;;1.20;;
21297;SDS011;10808;48.010;11.326;2022-09-12T13:02:48;1.17;;;1.10;;
21297;SDS011;10808;48.010;11.326;2022-09-12T13:05:51;2.20;;;1.40;;
21297;SDS011;10808;48.010;11.326;2022-09-12T13:08:32;1.90;;;1.30;;
21297;SDS011;10808;48.010;11.326;2022-09-12T13:11:07;1.27;;;1.23;;
21297;SDS011;10808;48.010;11.326;2022-09-12T13:13:39;1.88;;;1.42;;
21297;SDS011;10808;48.010;11.326;2022-09-12T13:19:12;1.42;;;1.33;;
21297;SDS011;10808;48.010;11.326;2022-09-12T13:21:54;1.83;;;1.13;;
21297;SDS011;10808;48.010;11.326;2022-09-12T13:24:32;2.13;;;1.40;;
21297;SDS011;10808;48.010;11.326;2022-09-12T13:26:59;1.85;;;1.45;;
21297;SDS011;10808;48.010;11.326;2022-09-12T13:29:26;1.50;;;1.40;;
21297;SDS011;10808;48.010;11.326;2022-09-12T13:31:53;1.50;;;1.40;;
21297;SDS011;10808;48.010;11.326;2022-09-12T13:34:26;1.40;;;1.30;;
21297;SDS011;10808;48.010;11.326;2022-09-12T13:43:06;2.60;;;1.35;;
21297;SDS011;10808;48.010;11.326;2022-09-12T13:45:39;1.40;;;1.30;;
21297;SDS011;10808;48.010;11.326;2022-09-12T13:48:11;1.35;;;1.25;;
21297;SDS011;10808;48.010;11.326;2022-09-12T13:51:00;4.47;;;1.40;;
21297;SDS011;10808;48.010;11.326;2022-09-12T13:53:29;1.40;;;1.30;;
21297;SDS011;10808;48.010;11.326;2022-09-12T13:56:07;2.87;;;1.20;;
21297;SDS011;10808;48.010;11.326;2022-09-12T13:58:49;1.83;;;1.20;;
21297;SDS011;10808;48.010;11.326;2022-09-12T14:01:21;1.50;;;1.20;;
21297;SDS011;10808;48.010;11.326;2022-09-12T14:03:56;2.30;;;1.40;;
21297;SDS011;10808;48.010;11.326;2022-09-12T14:06:48;1.97;;;1.43;;
21297;SDS011;10808;48.010;11.326;2022-09-12T14:09:22;1.33;;;1.23;;
21297;SDS011;10808;48.010;11.326;2022-09-12T14:12:03;1.30;;;1.20;;
21297;SDS011;10808;48.010;11.326;2022-09-12T14:14:38;1.30;;;1.20;;
21297;SDS011;10808;48.010;11.326;2022-09-12T14:17:15;1.50;;;1.40;;
21297;SDS011;10808;48.010;11.326;2022-09-12T14:19:45;1.30;;;1.20;;
21297;SDS011;10808;48.010;11.326;2022-09-12T14:22:11;1.50;;;1.15;;
21297;SDS011;10808;48.010;11.326;2022-09-12T14:24:47;1.50;;;1.35;;
21297;SDS011;10808;48.010;11.326;2022-09-12T14:27:16;1.50;;;1.38;;
21297;SDS011;10808;48.010;11.326;2022-09-12T14:29:45;11.32;;;1.65;;
21297;SDS011;10808;48.010;11.326;2022-09-12T14:32:17;9.18;;;1.60;;
21297;SDS011;10808;48.010;11.326;2022-09-12T14:37:50;4.18;;;1.55;;
21297;SDS011;10808;48.010;11.326;2022-09-12T14:40:17;1.33;;;1.20;;
21297;SDS011;10808;48.010;11.326;2022-09-12T14:42:46;1.35;;;1.20;;
21297;SDS011;10808;48.010;11.326;2022-09-12T14:47:47;1.30;;;1.20;;
21297;SDS011;10808;48.010;11.326;2022-09-12T14:50:16;1.10;;;1.00;;
21297;SDS011;10808;48.010;11.326;2022-09-12T14:52:44;27.42;;;2.40;;
21297;SDS011;10808;48.010;11.326;2022-09-12T14:57:40;2.90;;;1.10;;
21297;SDS011;10808;48.010;11.326;2022-09-12T15:02:41;2.90;;;1.23;;
21297;SDS011;10808;48.010;11.326;2022-09-12T15:12:47;1.58;;;1.30;;
21297;SDS011;10808;48.010;11.326;2022-09-12T15:17:41;3.00;;;1.38;;
21297;SDS011;10808;48.010;11.326;2022-09-12T15:20:08;1.85;;;1.20;;
21297;SDS011;10808;48.010;11.326;2022-09-12T15:22:35;2.20;;;1.40;;
21297;SDS011;10808;48.010;11.326;2022-09-12T15:25:03;1.77;;;1.20;;
21297;SDS011;10808;48.010;11.326;2022-09-12T15:27:30;3.05;;;1.30;;
21297;SDS011;10808;48.010;11.326;2022-09-12T15:29:56;1.70;;;1.13;;
21297;SDS011;10808;48.010;11.326;2022-09-12T15:32:26;1.40;;;1.27;;
21297;SDS011;10808;48.010;11.326;2022-09-12T15:34:54;1.50;;;1.27;;
21297;SDS011;10808;48.010;11.326;2022-09-12T15:37:21;1.70;;;1.20;;
21297;SDS011;10808;48.010;11.326;2022-09-12T15:39:48;2.15;;;1.30;;
21297;SDS011;10808;48.010;11.326;2022-09-12T15:42:15;1.45;;;1.20;;
21297;SDS011;10808;48.010;11.326;2022-09-12T15:44:43;1.40;;;1.20;;
21297;SDS011;10808;48.010;11.326;2022-09-12T15:47:10;1.30;;;1.20;;
21297;SDS011;10808;48.010;11.326;2022-09-12T15:49:38;1.33;;;1.23;;
21297;SDS011;10808;48.010;11.326;2022-09-12T15:52:05;2.33;;;1.30;;
21297;SDS011;10808;48.010;11.326;2022-09-12T15:54:32;1.10;;;1.10;;
21297;SDS011;10808;48.010;11.326;2022-09-12T15:56:58;1.20;;;1.10;;
21297;SDS011;10808;48.010;11.326;2022-09-12T15:59:24;1.40;;;1.30;;
21297;SDS011;10808;48.010;11.326;2022-09-12T16:01:50;1.47;;;1.30;;
21297;SDS011;10808;48.010;11.326;2022-09-12T16:04:20;1.45;;;1.35;;
21297;SDS011;10808;48.010;11.326;2022-09-12T16:06:50;1.63;;;1.30;;
21297;SDS011;10808;48.010;11.326;2022-09-12T16:09:17;1.42;;;1.30;;
21297;SDS011;10808;48.010;11.326;2022-09-12T16:11:43;1.10;;;1.10;;
21297;SDS011;10808;48.010;11.326;2022-09-12T16:14:13;1.73;;;1.13;;
21297;SDS011;10808;48.010;11.326;2022-09-12T16:16:41;1.75;;;1.33;;
21297;SDS011;10808;48.010;11.326;2022-09-12T16:19:08;1.38;;;1.27;;
21297;SDS011;10808;48.010;11.326;2022-09-12T16:21:35;1.50;;;1.40;;
21297;SDS011;10808;48.010;11.326;2022-09-12T16:24:01;1.50;;;1.40;;
21297;SDS011;10808;48.010;11.326;2022-09-12T16:26:28;1.67;;;1.30;;
21297;SDS011;10808;48.010;11.326;2022-09-12T16:28:54;1.50;;;1.40;;
21297;SDS011;10808;48.010;11.326;2022-09-12T16:31:24;1.38;;;1.27;;
21297;SDS011;10808;48.010;11.326;2022-09-12T16:33:51;1.60;;;1.40;;
21297;SDS011;10808;48.010;11.326;2022-09-12T16:36:18;1.38;;;1.20;;
21297;SDS011;10808;48.010;11.326;2022-09-12T16:38:46;2.90;;;1.40;;
21297;SDS011;10808;48.010;11.326;2022-09-12T16:41:18;2.10;;;1.50;;
21297;SDS011;10808;48.010;11.326;2022-09-12T16:43:46;2.20;;;1.73;;
21297;SDS011;10808;48.010;11.326;2022-09-12T16:46:13;4.30;;;1.40;;
21297;SDS011;10808;48.010;11.326;2022-09-12T16:48:41;2.20;;;1.50;;
21297;SDS011;10808;48.010;11.326;2022-09-12T16:51:13;1.55;;;1.42;;
21297;SDS011;10808;48.010;11.326;2022-09-12T16:53:41;1.97;;;1.40;;
21297;SDS011;10808;48.010;11.326;2022-09-12T16:56:08;3.20;;;1.70;;
21297;SDS011;10808;48.010;11.326;2022-09-12T16:58:35;1.85;;;1.50;;
21297;SDS011;10808;48.010;11.326;2022-09-12T17:01:03;1.67;;;1.58;;
21297;SDS011;10808;48.010;11.326;2022-09-12T17:03:31;2.65;;;1.65;;
21297;SDS011;10808;48.010;11.326;2022-09-12T17:06:05;1.70;;;1.60;;
21297;SDS011;10808;48.010;11.326;2022-09-12T17:08:37;2.55;;;1.40;;
21297;SDS011;10808;48.010;11.326;2022-09-12T17:11:05;1.73;;;1.52;;
21297;SDS011;10808;48.010;11.326;2022-09-12T17:13:33;1.73;;;1.60;;
21297;SDS011;10808;48.010;11.326;2022-09-12T17:16:03;3.38;;;1.50;;
21297;SDS011;10808;48.010;11.326;2022-09-12T17:18:30;1.55;;;1.45;;
21297;SDS011;10808;48.010;11.326;2022-09-12T17:20:56;2.90;;;1.70;;
21297;SDS011;10808;48.010;11.326;2022-09-12T17:23:22;2.00;;;1.55;;
21297;SDS011;10808;48.010;11.326;2022-09-12T17:25:49;2.40;;;1.70;;
21297;SDS011;10808;48.010;11.326;2022-09-12T17:28:19;1.95;;;1.75;;
21297;SDS011;10808;48.010;11.326;2022-09-12T17:30:46;4.07;;;1.95;;
21297;SDS011;10808;48.010;11.326;2022-09-12T17:33:18;2.70;;;1.70;;